createdAt,value
2022-10-08T00:01:30.011Z,4.20
2022-10-08T00:03:58.262Z,4.20
2022-10-08T00:06:31.519Z,3.80
2022-10-08T00:09:04.051Z,4.50
2022-10-08T00:11:38.209Z,3.80
2022-10-08T00:14:08.011Z,4.10
2022-10-08T00:16:41.116Z,3.80
2022-10-08T00:19:13.229Z,4.50
2022-10-08T00:21:45.402Z,4.10
2022-10-08T00:24:16.208Z,4.20
2022-10-08T00:26:44.803Z,4.20
2022-10-08T00:29:15.036Z,4.40
2022-10-08T00:31:45.948Z,4.20
2022-10-08T00:34:32.109Z,3.80
2022-10-08T00:36:59.945Z,4.20
2022-10-08T00:39:27.773Z,4.70
2022-10-08T00:41:56.469Z,4.80
2022-10-08T00:44:54.411Z,4.90
2022-10-08T00:47:38.829Z,5.20
2022-10-08T00:50:12.484Z,4.80
2022-10-08T00:53:05.215Z,5.00
2022-10-08T00:55:34.260Z,5.00
2022-10-08T00:58:10.067Z,6.00
2022-10-08T01:00:38.122Z,5.60
2022-10-08T01:03:06.337Z,4.90
2022-10-08T01:05:55.407Z,5.50
2022-10-08T01:08:32.320Z,5.60
2022-10-08T01:11:27.595Z,5.80
2022-10-08T01:14:09.795Z,6.20
2022-10-08T01:16:54.349Z,8.00
2022-10-08T01:19:50.504Z,7.20
2022-10-08T01:22:52.711Z,6.80
2022-10-08T01:25:56.057Z,7.20
2022-10-08T01:28:39.197Z,6.70
2022-10-08T01:31:09.641Z,6.30
2022-10-08T01:34:10.165Z,6.40
2022-10-08T01:36:43.614Z,5.70
2022-10-08T01:39:16.908Z,6.20
2022-10-08T01:41:51.316Z,5.50
2022-10-08T01:44:28.813Z,5.50
2022-10-08T01:46:58.822Z,5.30
2022-10-08T01:49:33.218Z,5.20
2022-10-08T01:52:16.801Z,5.70
2022-10-08T01:54:48.451Z,5.70
2022-10-08T01:57:16.407Z,5.10
2022-10-08T02:18:46.010Z,5.00
2022-10-08T02:58:03.355Z,4.80
2022-10-08T03:00:39.329Z,5.00
2022-10-08T03:03:14.613Z,4.90
2022-10-08T03:05:44.102Z,5.10
2022-10-08T03:08:14.812Z,5.50
2022-10-08T03:10:44.505Z,5.50
2022-10-08T03:13:13.201Z,5.00
2022-10-08T03:15:42.764Z,5.50
2022-10-08T03:18:12.443Z,6.00
2022-10-08T03:20:45.672Z,5.80
2022-10-08T03:23:16.844Z,6.40
2022-10-08T03:25:45.472Z,7.60
2022-10-08T03:28:13.352Z,7.60
2022-10-08T03:30:41.438Z,8.80
2022-10-08T03:33:09.323Z,8.40
2022-10-08T03:35:37.073Z,7.70
2022-10-08T03:38:04.879Z,9.10
2022-10-08T03:40:32.743Z,10.20
2022-10-08T03:43:00.643Z,10.30
2022-10-08T03:45:28.723Z,10.50
2022-10-08T03:47:56.562Z,10.30
2022-10-08T03:50:24.497Z,9.90
2022-10-08T03:52:52.265Z,10.00
2022-10-08T03:55:20.039Z,9.20
2022-10-08T03:57:47.829Z,9.20
2022-10-08T04:00:15.903Z,10.40
2022-10-08T04:02:43.827Z,10.60
2022-10-08T04:05:11.848Z,11.70
2022-10-08T04:07:39.656Z,11.20
2022-10-08T04:10:08.337Z,10.90
2022-10-08T04:12:36.267Z,10.70
2022-10-08T04:15:04.574Z,11.30
2022-10-08T04:17:32.426Z,10.50
2022-10-08T04:20:00.297Z,11.80
2022-10-08T04:22:28.084Z,11.50
2022-10-08T04:24:56.031Z,12.00
2022-10-08T04:27:23.887Z,11.70
2022-10-08T04:29:51.842Z,13.20
2022-10-08T04:32:19.651Z,12.70
2022-10-08T04:34:47.513Z,12.30
2022-10-08T04:37:15.581Z,12.60
2022-10-08T04:39:43.362Z,13.60
2022-10-08T04:42:11.138Z,12.10
2022-10-08T04:44:38.945Z,14.80
2022-10-08T04:47:06.894Z,13.50
2022-10-08T04:49:34.738Z,13.10
2022-10-08T04:52:02.606Z,13.60
2022-10-08T04:54:30.408Z,13.50
2022-10-08T04:56:58.243Z,14.70
2022-10-08T04:59:26.307Z,14.60
2022-10-08T05:01:57.050Z,14.80
2022-10-08T05:04:25.036Z,13.20
2022-10-08T05:06:52.878Z,15.00
2022-10-08T05:09:20.983Z,15.50
2022-10-08T05:11:50.964Z,14.90
2022-10-08T05:14:19.023Z,14.80
2022-10-08T05:16:48.704Z,17.30
2022-10-08T05:19:16.529Z,17.40
2022-10-08T05:21:44.351Z,16.70
2022-10-08T05:24:12.594Z,17.90
2022-10-08T05:26:57.672Z,18.30
2022-10-08T05:29:28.862Z,18.20
2022-10-08T05:31:56.855Z,18.70
2022-10-08T05:34:24.617Z,19.10
2022-10-08T05:36:52.596Z,18.00
2022-10-08T05:39:20.433Z,19.60
2022-10-08T05:41:48.271Z,19.60
2022-10-08T05:44:16.097Z,17.30
2022-10-08T05:46:44.260Z,20.00
2022-10-08T05:49:20.805Z,19.50
2022-10-08T05:51:49.779Z,19.10
2022-10-08T05:54:19.091Z,17.70
2022-10-08T05:56:47.036Z,15.10
2022-10-08T05:59:20.695Z,14.00
2022-10-08T06:01:48.948Z,14.60
2022-10-08T06:04:18.637Z,12.60
2022-10-08T06:06:47.222Z,11.70
2022-10-08T06:09:20.110Z,10.90
2022-10-08T06:11:49.474Z,10.50
2022-10-08T06:14:19.261Z,9.90
2022-10-08T06:16:47.581Z,9.70
2022-10-08T06:19:15.829Z,11.20
2022-10-08T06:21:43.812Z,12.20
2022-10-08T06:24:12.436Z,11.60
2022-10-08T06:26:41.982Z,10.80
2022-10-08T06:29:16.332Z,9.10
2022-10-08T06:31:45.488Z,10.90
2022-10-08T06:34:13.533Z,10.50
2022-10-08T06:36:41.694Z,10.20
2022-10-08T06:39:15.626Z,9.80
2022-10-08T06:41:44.132Z,9.70
2022-10-08T06:44:13.912Z,10.20
2022-10-08T06:46:42.791Z,10.20
2022-10-08T06:49:11.587Z,9.40
2022-10-08T06:51:39.527Z,11.50
2022-10-08T06:54:08.665Z,10.90
2022-10-08T06:56:38.233Z,10.60
2022-10-08T06:59:07.416Z,12.20
2022-10-08T07:01:35.924Z,12.00
2022-10-08T07:04:05.539Z,12.60
2022-10-08T07:06:33.598Z,13.40
2022-10-08T07:09:03.833Z,13.10
2022-10-08T07:11:33.710Z,13.00
2022-10-08T07:14:01.882Z,13.20
2022-10-08T07:16:30.116Z,14.20
2022-10-08T07:18:58.777Z,14.30
2022-10-08T07:21:28.338Z,15.30
2022-10-08T07:23:58.589Z,15.20
2022-10-08T07:26:29.206Z,15.00
2022-10-08T07:28:59.975Z,16.10
2022-10-08T07:31:34.325Z,16.30
2022-10-08T07:34:04.983Z,15.80
2022-10-08T07:36:33.519Z,15.20
2022-10-08T07:39:04.483Z,16.10
2022-10-08T07:41:33.292Z,16.10
2022-10-08T07:44:02.663Z,16.10
2022-10-08T07:46:33.165Z,17.20
2022-10-08T07:49:02.469Z,16.10
2022-10-08T07:51:32.932Z,17.10
2022-10-08T07:54:03.156Z,16.60
2022-10-08T07:56:32.396Z,16.10
2022-10-08T07:59:01.952Z,15.30
2022-10-08T08:01:31.757Z,15.70
2022-10-08T08:04:03.851Z,14.40
2022-10-08T08:06:33.713Z,15.20
2022-10-08T08:09:01.995Z,15.10
2022-10-08T08:11:30.529Z,14.40
2022-10-08T08:13:58.558Z,15.00
2022-10-08T08:16:29.304Z,13.80
2022-10-08T08:18:59.834Z,12.90
2022-10-08T08:21:36.239Z,14.30
2022-10-08T08:24:07.757Z,15.30
2022-10-08T08:26:38.877Z,14.20
2022-10-08T08:29:10.027Z,16.80
2022-10-08T08:31:40.701Z,16.30
2022-10-08T08:34:11.299Z,17.30
2022-10-08T08:36:42.058Z,16.80
2022-10-08T08:39:15.303Z,19.50
2022-10-08T08:42:08.821Z,20.40
2022-10-08T08:44:40.311Z,19.50
2022-10-08T08:47:32.085Z,20.30
2022-10-08T08:50:23.738Z,22.30
2022-10-08T08:52:52.311Z,23.60
2022-10-08T08:55:42.425Z,26.30
2022-10-08T08:58:44.732Z,25.50
2022-10-08T09:01:36.731Z,24.80
2022-10-08T09:04:13.325Z,24.70
2022-10-08T09:09:30.585Z,24.90
2022-10-08T09:11:59.071Z,21.40
2022-10-08T09:14:45.560Z,22.60
2022-10-08T09:17:19.451Z,21.70
2022-10-08T09:19:49.613Z,21.40
2022-10-08T09:22:27.353Z,19.50
2022-10-08T09:25:01.201Z,19.80
2022-10-08T09:27:53.165Z,21.20
2022-10-08T09:30:29.298Z,19.00
2022-10-08T09:33:22.855Z,18.70
2022-10-08T09:35:53.335Z,18.90
2022-10-08T09:38:25.557Z,16.60
2022-10-08T09:41:11.845Z,16.30
2022-10-08T09:43:39.737Z,15.60
2022-10-08T09:46:27.285Z,13.00
2022-10-08T09:48:55.235Z,15.20
2022-10-08T09:51:23.782Z,14.30
2022-10-08T09:53:58.577Z,13.30
2022-10-08T09:56:30.962Z,13.20
2022-10-08T09:59:02.399Z,12.30
2022-10-08T10:01:31.748Z,12.00
2022-10-08T10:04:02.182Z,11.00
2022-10-08T10:06:37.385Z,10.20
2022-10-08T10:09:11.462Z,11.40
2022-10-08T10:11:49.811Z,9.40
2022-10-08T10:14:24.603Z,10.00
2022-10-08T10:17:04.147Z,8.50
2022-10-08T10:20:07.780Z,8.40
2022-10-08T10:22:47.375Z,8.10
2022-10-08T10:25:30.617Z,8.40
2022-10-08T10:28:04.272Z,8.10
2022-10-08T10:30:42.740Z,7.90
2022-10-08T10:33:20.528Z,7.30
2022-10-08T10:36:14.037Z,7.30
2022-10-08T10:38:50.376Z,6.60
2022-10-08T10:41:27.175Z,6.70
2022-10-08T10:44:04.773Z,6.70
2022-10-08T10:46:51.081Z,8.00
2022-10-08T10:49:22.898Z,6.70
2022-10-08T10:52:11.047Z,6.90
2022-10-08T10:54:57.604Z,6.10
2022-10-08T10:57:56.580Z,6.40
2022-10-08T11:00:33.296Z,5.80
2022-10-08T11:03:25.729Z,37.90
2022-10-08T11:06:04.919Z,6.10
2022-10-08T11:08:39.594Z,6.20
2022-10-08T11:11:21.456Z,6.70
2022-10-08T11:14:14.353Z,6.90
2022-10-08T11:17:00.338Z,6.50
2022-10-08T11:19:37.877Z,6.20
2022-10-08T11:23:02.576Z,6.30
2022-10-08T11:26:16.494Z,11.20
2022-10-08T11:28:58.258Z,6.30
2022-10-08T11:31:49.729Z,6.50
2022-10-08T11:34:27.090Z,5.90
2022-10-08T11:37:01.252Z,6.60
2022-10-08T11:39:37.155Z,6.20
2022-10-08T11:42:16.991Z,6.70
2022-10-08T11:44:44.884Z,6.40
2022-10-08T11:47:35.836Z,6.60
2022-10-08T11:50:05.866Z,8.00
2022-10-08T11:52:34.878Z,7.20
2022-10-08T11:55:02.963Z,6.80
2022-10-08T11:58:03.003Z,6.50
2022-10-08T12:00:36.593Z,7.20
2022-10-08T12:03:28.333Z,7.30
2022-10-08T12:06:00.809Z,6.20
2022-10-08T12:08:52.930Z,6.30
2022-10-08T12:11:41.083Z,6.60
2022-10-08T12:14:12.363Z,5.90
2022-10-08T12:16:56.145Z,7.60
2022-10-08T12:19:35.594Z,6.30
2022-10-08T12:22:07.012Z,22.70
2022-10-08T12:24:37.859Z,7.50
2022-10-08T12:27:18.106Z,6.40
2022-10-08T12:30:07.446Z,6.10
2022-10-08T12:32:41.454Z,6.00
2022-10-08T12:35:31.840Z,5.60
2022-10-08T12:38:15.005Z,5.50
2022-10-08T12:40:53.993Z,5.80
2022-10-08T12:43:32.046Z,6.00
2022-10-08T12:46:06.658Z,5.60
2022-10-08T12:49:02.599Z,5.50
2022-10-08T12:52:24.971Z,5.00
2022-10-08T12:54:56.913Z,5.30
2022-10-08T12:57:34.642Z,5.40
2022-10-08T13:00:09.120Z,5.10
2022-10-08T13:02:42.345Z,5.10
2022-10-08T13:05:38.791Z,5.50
2022-10-08T13:08:31.599Z,4.80
2022-10-08T13:11:02.528Z,5.00
2022-10-08T13:13:39.686Z,5.10
2022-10-08T13:16:22.561Z,4.90
2022-10-08T13:18:57.555Z,5.10
2022-10-08T13:21:31.783Z,4.90
2022-10-08T13:24:21.196Z,5.10
2022-10-08T13:26:54.743Z,4.60
2022-10-08T13:29:22.661Z,8.50
2022-10-08T13:31:58.411Z,5.70
2022-10-08T13:34:31.536Z,4.90
2022-10-08T13:37:02.904Z,5.40
2022-10-08T13:39:37.403Z,4.70
2022-10-08T13:42:16.444Z,7.10
2022-10-08T13:44:44.894Z,4.70
2022-10-08T13:47:18.139Z,4.50
2022-10-08T13:49:46.842Z,4.40
2022-10-08T13:52:16.768Z,8.60
2022-10-08T13:54:45.126Z,5.10
2022-10-08T13:57:13.832Z,4.60
2022-10-08T13:59:41.915Z,5.20
2022-10-08T14:02:14.562Z,4.90
2022-10-08T14:04:42.739Z,4.50
2022-10-08T14:07:37.339Z,4.40
2022-10-08T14:10:06.297Z,4.90
2022-10-08T14:12:35.118Z,4.90
2022-10-08T14:15:03.401Z,4.50
2022-10-08T14:17:32.742Z,4.70
2022-10-08T14:20:00.672Z,5.00
2022-10-08T14:22:28.607Z,4.50
2022-10-08T14:24:56.489Z,4.20
2022-10-08T14:27:24.364Z,3.90
2022-10-08T14:29:52.193Z,3.80
2022-10-08T14:32:20.068Z,4.40
2022-10-08T14:34:47.909Z,4.20
2022-10-08T14:37:15.781Z,4.90
2022-10-08T14:39:43.715Z,4.20
2022-10-08T14:42:11.604Z,4.10
2022-10-08T14:44:39.498Z,4.60
2022-10-08T14:47:07.347Z,4.50
2022-10-08T14:49:35.130Z,4.70
2022-10-08T14:52:03.077Z,7.80
2022-10-08T14:54:31.015Z,5.60
2022-10-08T14:56:58.861Z,5.00
2022-10-08T14:59:27.417Z,5.20
2022-10-08T15:01:55.332Z,4.50
2022-10-08T15:04:23.312Z,4.80
2022-10-08T15:06:51.100Z,4.90
2022-10-08T15:09:19.019Z,4.90
2022-10-08T15:11:46.969Z,5.00
2022-10-08T15:14:15.745Z,14.10
2022-10-08T15:16:43.726Z,8.40
2022-10-08T15:19:11.671Z,7.00
2022-10-08T15:21:39.690Z,6.60
2022-10-08T15:24:07.709Z,7.30
2022-10-08T15:26:35.564Z,6.90
2022-10-08T15:29:03.630Z,6.70
2022-10-08T15:31:31.648Z,9.20
2022-10-08T15:34:00.002Z,6.90
2022-10-08T15:36:29.330Z,7.30
2022-10-08T15:39:18.193Z,8.90
2022-10-08T15:41:48.820Z,20.00
2022-10-08T15:44:21.110Z,22.40
2022-10-08T15:46:54.852Z,23.10
2022-10-08T15:49:40.433Z,15.30
2022-10-08T15:52:11.385Z,13.00
2022-10-08T15:54:40.483Z,12.10
2022-10-08T15:57:10.677Z,9.80
2022-10-08T15:59:38.852Z,9.40
2022-10-08T16:02:09.062Z,9.10
2022-10-08T16:04:39.223Z,9.20
2022-10-08T16:07:11.607Z,10.10
2022-10-08T16:09:39.568Z,8.00
2022-10-08T16:12:07.451Z,11.90
2022-10-08T16:14:35.494Z,12.90
2022-10-08T16:17:03.446Z,35.90
2022-10-08T16:19:31.337Z,35.60
2022-10-08T16:21:59.184Z,21.00
2022-10-08T16:24:27.162Z,19.50
2022-10-08T16:26:55.098Z,12.10
2022-10-08T16:29:22.894Z,9.00
2022-10-08T16:31:50.726Z,8.10
2022-10-08T16:34:21.365Z,7.40
2022-10-08T16:36:51.363Z,18.60
2022-10-08T16:39:21.239Z,31.60
2022-10-08T16:41:49.282Z,10.00
2022-10-08T16:44:19.866Z,8.30
2022-10-08T16:46:51.010Z,8.20
2022-10-08T16:49:26.219Z,11.10
2022-10-08T16:51:59.238Z,6.80
2022-10-08T16:54:28.301Z,14.00
2022-10-08T16:56:56.983Z,15.90
2022-10-08T16:59:27.157Z,12.50
2022-10-08T17:01:57.676Z,28.30
2022-10-08T17:04:27.870Z,20.30
2022-10-08T17:06:56.018Z,8.80
2022-10-08T17:09:24.126Z,8.80
2022-10-08T17:11:52.756Z,9.40
2022-10-08T17:14:20.929Z,9.00
2022-10-08T17:16:50.680Z,9.70
2022-10-08T17:19:19.057Z,9.60
2022-10-08T17:21:46.875Z,9.10
2022-10-08T17:24:14.917Z,10.20
2022-10-08T17:26:42.846Z,9.70
2022-10-08T17:29:12.974Z,7.90
2022-10-08T17:31:41.353Z,12.20
2022-10-08T17:34:10.135Z,14.70
2022-10-08T17:36:41.099Z,13.80
2022-10-08T17:39:13.271Z,13.10
2022-10-08T17:41:42.747Z,16.10
2022-10-08T17:44:11.967Z,7.40
2022-10-08T17:46:45.477Z,11.50
2022-10-08T17:49:19.170Z,7.10
2022-10-08T17:51:48.009Z,7.90
2022-10-08T17:54:19.223Z,6.70
2022-10-08T17:56:47.872Z,6.70
2022-10-08T17:59:17.796Z,5.70
2022-10-08T18:01:46.461Z,6.90
2022-10-08T18:04:16.395Z,6.70
2022-10-08T18:06:49.107Z,5.80
2022-10-08T18:09:20.559Z,7.10
2022-10-08T18:11:53.413Z,6.90
2022-10-08T18:14:22.768Z,6.40
2022-10-08T18:16:51.485Z,6.10
2022-10-08T18:19:20.021Z,6.60
2022-10-08T18:21:48.514Z,6.20
2022-10-08T18:24:17.845Z,6.00
2022-10-08T18:26:45.921Z,7.60
2022-10-08T18:29:14.814Z,8.20
2022-10-08T18:31:44.585Z,8.20
2022-10-08T18:34:15.246Z,9.40
2022-10-08T18:36:44.261Z,7.70
2022-10-08T18:39:14.962Z,8.50
2022-10-08T18:41:45.867Z,9.40
2022-10-08T18:44:23.189Z,10.10
2022-10-08T18:46:52.262Z,8.90
2022-10-08T18:49:30.524Z,8.70
2022-10-08T18:51:59.731Z,9.10
2022-10-08T18:54:27.950Z,10.10
2022-10-08T18:56:57.008Z,9.60
2022-10-08T18:59:24.922Z,9.20
2022-10-08T19:01:56.942Z,8.90
2022-10-08T19:04:27.425Z,8.70
2022-10-08T19:06:55.494Z,13.70
2022-10-08T19:09:23.381Z,9.60
2022-10-08T19:11:53.566Z,9.60
2022-10-08T19:14:23.315Z,10.80
2022-10-08T19:16:51.856Z,10.60
2022-10-08T19:19:23.606Z,9.00
2022-10-08T19:21:52.245Z,9.30
2022-10-08T19:24:23.228Z,12.80
2022-10-08T19:26:52.383Z,14.70
2022-10-08T19:29:23.402Z,9.80
2022-10-08T19:31:51.546Z,10.40
2022-10-08T19:34:22.809Z,10.00
2022-10-08T19:36:51.573Z,9.60
2022-10-08T19:39:22.725Z,10.40
2022-10-08T19:41:51.399Z,8.70
2022-10-08T19:44:20.074Z,9.80
2022-10-08T19:46:49.005Z,8.30
2022-10-08T19:49:17.109Z,6.90
2022-10-08T19:51:45.893Z,9.60
2022-10-08T19:54:14.282Z,8.80
2022-10-08T19:56:42.219Z,8.80
2022-10-08T19:59:13.844Z,10.10
2022-10-08T20:01:42.867Z,7.30
2022-10-08T20:04:11.916Z,7.40
2022-10-08T20:06:41.851Z,8.50
2022-10-08T20:09:12.180Z,7.80
2022-10-08T20:11:42.923Z,8.30
2022-10-08T20:14:12.649Z,7.70
2022-10-08T20:16:42.498Z,8.10
2022-10-08T20:19:19.643Z,7.90
2022-10-08T20:21:49.180Z,8.10
2022-10-08T20:24:18.821Z,9.40
2022-10-08T20:26:49.052Z,8.90
2022-10-08T20:29:20.054Z,8.90
2022-10-08T20:31:50.535Z,8.90
2022-10-08T20:34:20.751Z,9.60
2022-10-08T20:36:49.511Z,9.30
2022-10-08T20:39:19.112Z,9.20
2022-10-08T20:41:47.879Z,8.80
2022-10-08T20:44:16.615Z,8.80
2022-10-08T20:46:44.579Z,8.80
2022-10-08T20:49:13.319Z,8.80
2022-10-08T20:51:43.159Z,9.40
2022-10-08T20:54:13.886Z,8.70
2022-10-08T20:56:42.668Z,8.80
2022-10-08T20:59:15.415Z,8.60
2022-10-08T21:01:43.897Z,8.50
2022-10-08T21:04:12.431Z,8.80
2022-10-08T21:06:43.765Z,9.40
2022-10-08T21:09:13.287Z,8.50
2022-10-08T21:11:42.186Z,8.10
2022-10-08T21:14:18.964Z,8.50
2022-10-08T21:16:47.175Z,9.20
2022-10-08T21:19:19.286Z,8.90
2022-10-08T21:21:47.121Z,8.50
2022-10-08T21:24:14.982Z,9.00
2022-10-08T21:26:43.236Z,8.40
2022-10-08T21:29:13.378Z,8.30
2022-10-08T21:31:42.311Z,8.80
2022-10-08T21:34:12.205Z,7.80
2022-10-08T21:36:41.495Z,8.80
2022-10-08T21:39:15.058Z,8.30
2022-10-08T21:41:43.714Z,7.40
2022-10-08T21:44:11.797Z,7.30
2022-10-08T21:46:41.429Z,7.30
2022-10-08T21:49:20.742Z,8.00
2022-10-08T21:51:48.800Z,7.20
2022-10-08T21:54:19.678Z,7.80
2022-10-08T21:56:47.598Z,7.50
2022-10-08T21:59:16.848Z,7.10
2022-10-08T22:01:50.222Z,6.80
2022-10-08T22:04:21.148Z,7.00
2022-10-08T22:06:51.896Z,7.40
2022-10-08T22:09:26.099Z,6.30
2022-10-08T22:11:55.989Z,7.70
2022-10-08T22:14:24.345Z,6.60
2022-10-08T22:16:52.252Z,7.50
2022-10-08T22:19:20.473Z,6.50
2022-10-08T22:21:48.628Z,7.10
2022-10-08T22:24:16.972Z,7.00
2022-10-08T22:26:47.743Z,6.90
2022-10-08T22:29:17.318Z,7.60
2022-10-08T22:31:45.857Z,7.10
2022-10-08T22:34:13.819Z,7.70
2022-10-08T22:36:43.728Z,8.00
2022-10-08T22:39:12.146Z,7.60
2022-10-08T22:41:40.077Z,8.10
2022-10-08T22:44:08.027Z,8.60
2022-10-08T22:46:38.511Z,8.70
2022-10-08T22:49:09.688Z,8.00
2022-10-08T22:51:38.333Z,8.40
2022-10-08T22:54:06.612Z,8.70
2022-10-08T22:56:34.442Z,8.90
2022-10-08T22:59:02.320Z,8.90
2022-10-08T23:01:30.948Z,8.70
2022-10-08T23:03:58.998Z,8.40
2022-10-08T23:06:29.732Z,8.50
2022-10-08T23:09:01.229Z,9.00
2022-10-08T23:11:31.824Z,8.90
2022-10-08T23:14:01.066Z,9.60
2022-10-08T23:16:31.219Z,8.60
2022-10-08T23:19:06.288Z,8.90
2022-10-08T23:21:36.018Z,8.30
2022-10-08T23:24:05.111Z,8.10
2022-10-08T23:26:33.549Z,7.60
2022-10-08T23:29:02.087Z,8.00
2022-10-08T23:31:32.359Z,7.30
2022-10-08T23:34:01.389Z,7.20
2022-10-08T23:36:32.334Z,8.10
2022-10-08T23:39:00.554Z,7.50
2022-10-08T23:41:29.092Z,8.00
2022-10-08T23:43:58.975Z,7.30
2022-10-08T23:46:29.341Z,7.20
2022-10-08T23:48:58.502Z,7.10
2022-10-08T23:51:32.309Z,7.20
2022-10-08T23:54:01.612Z,6.90
2022-10-08T23:56:29.895Z,6.30
2022-10-08T23:58:58.207Z,6.70
